Time;durP1;ratioP1;P1;durP2;ratioP2;P2;SDS_P1;SDS_P2;PMS_P1;PMS_P2;Temp;Humidity;BMP_temperature;BMP_pressure;BME280_temperature;BME280_humidity;BME280_pressure;Samples;Min_cycle;Max_cycle;Signal;HPM_P1;HPM_P2
2021/11/03 00:00:49;;;;;;;14.50;9.98;;;;;;;12.55;70.25;100356.66;4954471;28;20051;-64
2021/11/03 00:03:16;;;;;;;13.85;9.88;;;;;;;12.53;70.17;100350.63;4957026;28;20098;-64
2021/11/03 00:05:45;;;;;;;14.15;9.75;;;;;;;12.52;70.15;100362.97;4957184;28;20055;-64
2021/11/03 00:08:14;;;;;;;13.82;10.43;;;;;;;12.51;70.15;100366.53;4956112;28;20058;-64
2021/11/03 00:10:43;;;;;;;14.43;10.07;;;;;;;12.51;70.12;100366.53;4937835;29;20485;-64
2021/11/03 00:13:12;;;;;;;14.60;10.18;;;;;;;12.50;70.07;100362.22;4951596;29;20048;-64
2021/11/03 00:15:39;;;;;;;13.40;10.32;;;;;;;12.49;69.98;100365.81;4956920;28;20054;-64
2021/11/03 00:18:07;;;;;;;13.95;10.07;;;;;;;12.47;70.06;100372.97;4956535;28;20047;-64
2021/11/03 00:20:35;;;;;;;15.90;10.43;;;;;;;12.46;70.07;100371.28;4956774;28;20151;-64
2021/11/03 00:23:03;;;;;;;15.40;10.70;;;;;;;12.43;70.30;100368.91;4956590;28;20054;-64
2021/11/03 00:25:30;;;;;;;13.95;10.75;;;;;;;12.45;69.85;100368.78;4956604;28;20047;-64
2021/11/03 00:27:56;;;;;;;13.60;10.32;;;;;;;12.47;70.07;100372.97;4956551;28;20075;-64
2021/11/03 00:30:23;;;;;;;11.90;9.85;;;;;;;12.50;69.82;100369.28;4956347;28;20057;-64
2021/11/03 00:32:49;;;;;;;14.25;10.45;;;;;;;12.50;69.89;100378.03;4956467;28;20047;-64
2021/11/03 00:35:16;;;;;;;13.50;9.77;;;;;;;12.53;69.96;100374.31;4956392;28;20118;-64
2021/11/03 00:37:43;;;;;;;15.45;10.43;;;;;;;12.52;70.03;100368.25;4956675;28;20054;-64
2021/11/03 00:40:11;;;;;;;15.70;10.13;;;;;;;12.53;69.92;100372.56;4956092;28;20066;-64
2021/11/03 00:42:38;;;;;;;12.95;10.00;;;;;;;12.54;70.16;100379.50;4956545;28;20051;-63
2021/11/03 00:45:07;;;;;;;14.02;10.85;;;;;;;12.57;70.04;100379.28;4956256;28;20447;-64
2021/11/03 00:47:34;;;;;;;14.82;11.48;;;;;;;12.58;70.12;100374.84;4956215;28;20103;-64
2021/11/03 00:50:01;;;;;;;15.95;11.55;;;;;;;12.56;70.17;100367.06;4956051;29;20051;-64
2021/11/03 00:52:27;;;;;;;14.45;11.15;;;;;;;12.55;70.44;100370.63;4955992;28;20086;-64
2021/11/03 00:54:54;;;;;;;16.38;11.60;;;;;;;12.58;70.21;100380.97;4956174;28;20044;-64
2021/11/03 00:57:21;;;;;;;17.58;11.50;;;;;;;12.58;70.10;100383.59;4956266;28;20055;-64
2021/11/03 00:59:49;;;;;;;16.27;11.98;;;;;;;12.59;70.39;100381.78;4956033;28;20512;-64
2021/11/03 01:02:16;;;;;;;18.00;12.10;;;;;;;12.58;70.33;100380.97;4955939;28;20059;-64
2021/11/03 01:04:44;;;;;;;16.33;11.88;;;;;;;12.59;70.38;100368.63;4956012;28;20090;-64
2021/11/03 01:07:11;;;;;;;13.05;11.00;;;;;;;12.58;70.26;100378.34;4955994;28;20055;-64
2021/11/03 01:09:38;;;;;;;15.43;11.48;;;;;;;12.57;70.27;100366.13;4955712;28;20484;-64
2021/11/03 01:12:06;;;;;;;16.05;11.82;;;;;;;12.58;70.26;100375.69;4955769;28;20535;-64
2021/11/03 01:14:34;;;;;;;15.43;11.70;;;;;;;12.59;70.64;100394.94;4955856;28;20109;-64
2021/11/03 01:17:01;;;;;;;16.00;11.60;;;;;;;12.57;70.57;100384.53;4955792;28;20090;-64
2021/11/03 01:19:28;;;;;;;16.52;11.27;;;;;;;12.60;70.69;100382.66;4955492;28;20464;-64
2021/11/03 01:21:54;;;;;;;14.88;10.93;;;;;;;12.61;70.78;100381.69;4955859;28;20058;-64
2021/11/03 01:24:21;;;;;;;16.33;11.95;;;;;;;12.59;70.75;100387.06;4955468;28;20047;-64
2021/11/03 01:26:47;;;;;;;15.65;11.43;;;;;;;12.61;70.76;100379.91;4955656;28;20075;-64
2021/11/03 01:29:14;;;;;;;15.50;10.85;;;;;;;12.63;70.77;100372.72;4955486;28;20055;-64
2021/11/03 01:31:41;;;;;;;15.85;11.15;;;;;;;12.63;70.89;100375.34;4955555;28;20043;-64
2021/11/03 01:34:07;;;;;;;16.23;11.35;;;;;;;12.63;70.88;100370.09;4955363;28;20048;-64
2021/11/03 01:36:35;;;;;;;14.55;10.68;;;;;;;12.62;70.74;100375.47;4955499;28;20047;-64
2021/11/03 01:39:04;;;;;;;12.73;10.35;;;;;;;12.60;71.12;100354.53;4955424;28;20047;-64
2021/11/03 01:41:31;;;;;;;15.50;11.00;;;;;;;12.57;71.06;100350.31;4955373;28;20047;-64
2021/11/03 01:44:06;;;;;;;12.82;10.30;;;;;;;12.54;71.16;100344.44;4955187;28;20047;-63
2021/11/03 01:47:15;;;;;;;16.00;10.95;;;;;;;12.54;71.21;100350.56;4955349;28;20051;-64
2021/11/03 01:49:42;;;;;;;15.45;10.93;;;;;;;12.55;71.19;100349.56;4954973;28;20051;-64
2021/11/03 01:52:15;;;;;;;16.23;10.50;;;;;;;12.56;71.23;100351.28;4954819;28;20054;-64
2021/11/03 01:54:48;;;;;;;15.05;10.95;;;;;;;12.56;71.26;100346.00;4955145;28;20054;-64
2021/11/03 01:57:18;;;;;;;15.98;10.95;;;;;;;12.58;71.17;100349.38;4954914;28;20050;-64
2021/11/03 01:59:52;;;;;;;17.08;10.85;;;;;;;12.58;71.23;100338.84;4953871;28;20139;-63
2021/11/03 02:02:20;;;;;;;13.30;10.45;;;;;;;12.57;71.24;100345.06;4954403;28;20051;-64
2021/11/03 02:04:48;;;;;;;14.88;10.43;;;;;;;12.57;71.27;100345.06;4954808;28;20059;-64
2021/11/03 02:07:18;;;;;;;15.63;10.65;;;;;;;12.54;71.35;100341.81;4954787;28;20102;-64
2021/11/03 02:09:45;;;;;;;13.63;10.00;;;;;;;12.59;71.11;100337.03;4942784;28;20043;-64
2021/11/03 02:12:20;;;;;;;13.38;9.77;;;;;;;12.61;71.03;100334.28;4935429;29;20056;-64
2021/11/03 02:14:48;;;;;;;13.50;10.50;;;;;;;12.62;70.91;100335.97;4935672;29;20043;-64
2021/11/03 02:17:16;;;;;;;16.73;10.77;;;;;;;12.63;70.97;100340.31;4935474;29;20484;-64
2021/11/03 02:19:44;;;;;;;16.73;10.23;;;;;;;12.63;70.81;100335.88;4935509;29;20523;-64
2021/11/03 02:22:18;;;;;;;17.20;10.68;;;;;;;12.66;70.61;100337.44;4935379;29;20048;-64
2021/11/03 02:24:54;;;;;;;12.38;10.10;;;;;;;12.67;70.66;100332.09;4935645;29;20052;-64
2021/11/03 02:27:23;;;;;;;12.52;9.40;;;;;;;12.68;70.75;100340.81;4935285;29;20481;-64
2021/11/03 02:29:51;;;;;;;14.75;10.30;;;;;;;12.70;70.53;100338.91;4935433;29;20049;-64
2021/11/03 02:32:25;;;;;;;13.80;10.38;;;;;;;12.70;70.75;100337.13;4935380;29;20456;-64
2021/11/03 02:34:52;;;;;;;14.70;10.43;;;;;;;12.70;70.59;100342.38;4935277;29;20090;-64
2021/11/03 02:37:27;;;;;;;13.93;9.55;;;;;;;12.70;70.51;100341.56;4935314;29;20099;-64
2021/11/03 02:40:12;;;;;;;13.25;10.45;;;;;;;12.69;70.49;100334.59;4935042;29;20055;-64
2021/11/03 02:45:34;;;;;;;13.30;9.93;;;;;;;12.69;70.54;100329.34;4663177;23;20126;-63
2021/11/03 02:48:01;;;;;;;15.25;9.90;;;;;;;12.67;70.50;100318.91;4953597;28;20043;-64
2021/11/03 02:50:28;;;;;;;13.80;9.93;;;;;;;12.64;70.55;100307.78;4953843;28;20574;-63
2021/11/03 02:52:55;;;;;;;14.18;9.43;;;;;;;12.63;70.45;100306.91;4953886;28;20047;-63
2021/11/03 02:55:21;;;;;;;13.73;9.88;;;;;;;12.63;70.30;100311.34;4953898;28;20398;-64
2021/11/03 02:57:48;;;;;;;13.10;9.23;;;;;;;12.65;70.20;100312.09;4953661;28;20502;-63
2021/11/03 03:00:18;;;;;;;9.82;8.20;;;;;;;12.66;70.18;100314.59;4953715;28;20085;-63
2021/11/03 03:02:45;;;;;;;13.45;8.85;;;;;;;12.67;69.88;100315.44;4957934;28;20044;-64
2021/11/03 03:05:13;;;;;;;11.80;8.90;;;;;;;12.66;69.85;100309.34;4953891;28;20154;-63
2021/11/03 03:07:40;;;;;;;11.25;9.07;;;;;;;12.65;70.14;100310.28;4953833;28;20051;-64
2021/11/03 03:10:07;;;;;;;10.75;8.73;;;;;;;12.65;70.21;100306.81;4953376;28;20101;-64
2021/11/03 03:12:34;;;;;;;11.75;9.15;;;;;;;12.64;70.48;100303.34;4957637;28;20055;-63
2021/11/03 03:15:01;;;;;;;9.77;8.10;;;;;;;12.62;70.45;100300.00;4957573;28;20051;-64
2021/11/03 03:17:28;;;;;;;11.68;8.50;;;;;;;12.64;70.66;100310.41;4957545;28;20047;-63
2021/11/03 03:19:55;;;;;;;11.32;8.23;;;;;;;12.65;70.41;100306.81;4956938;28;20427;-63
2021/11/03 03:22:21;;;;;;;11.85;8.57;;;;;;;12.63;70.57;100288.47;4957250;28;20044;-64
2021/11/03 03:24:48;;;;;;;10.50;7.72;;;;;;;12.64;70.57;100278.81;4957402;28;20051;-63
2021/11/03 03:27:18;;;;;;;11.43;7.97;;;;;;;12.64;70.36;100268.28;4957049;28;20052;-63
2021/11/03 03:29:45;;;;;;;9.02;7.70;;;;;;;12.64;70.49;100263.03;4957409;28;20076;-63
2021/11/03 03:32:12;;;;;;;10.93;8.63;;;;;;;12.62;70.57;100263.13;4957364;28;20054;-63
2021/11/03 03:34:39;;;;;;;12.07;8.13;;;;;;;12.61;70.51;100253.56;4957237;28;20043;-63
2021/11/03 03:37:07;;;;;;;12.20;9.07;;;;;;;12.61;70.52;100245.66;4957010;28;20044;-63
2021/11/03 03:39:35;;;;;;;11.07;7.95;;;;;;;12.62;70.52;100249.13;4957088;28;20055;-63
2021/11/03 03:42:12;;;;;;;12.32;8.48;;;;;;;12.62;70.54;100254.38;4957054;28;20494;-63
2021/11/03 03:44:39;;;;;;;12.10;8.15;;;;;;;12.59;70.69;100255.44;4957208;28;20122;-63
2021/11/03 03:47:06;;;;;;;11.23;8.20;;;;;;;12.60;70.55;100266.84;4955654;28;20055;-63
2021/11/03 03:49:34;;;;;;;11.10;8.65;;;;;;;12.60;70.78;100267.66;4955610;28;20053;-64
2021/11/03 03:52:02;;;;;;;10.70;7.82;;;;;;;12.60;70.66;100264.19;4955546;28;20062;-64
2021/11/03 03:54:29;;;;;;;9.52;7.93;;;;;;;12.60;70.66;100267.66;4955753;28;20496;-64
2021/11/03 03:56:56;;;;;;;10.95;8.10;;;;;;;12.58;70.57;100278.31;4955425;28;20106;-63
2021/11/03 03:59:23;;;;;;;10.70;8.20;;;;;;;12.59;70.75;100268.59;4955766;28;20106;-63
2021/11/03 04:01:50;;;;;;;9.50;7.05;;;;;;;12.57;70.90;100263.47;4955183;28;20051;-64
2021/11/03 04:04:18;;;;;;;10.68;7.88;;;;;;;12.60;70.47;100266.84;4956197;28;20403;-64
2021/11/03 04:06:44;;;;;;;10.07;7.95;;;;;;;12.57;70.72;100268.72;4955358;28;20047;-64
2021/11/03 04:09:11;;;;;;;9.00;6.90;;;;;;;12.56;70.59;100260.94;4955395;28;20043;-64
2021/11/03 04:11:39;;;;;;;10.95;7.07;;;;;;;12.56;70.72;100267.03;4955297;28;20039;-64
2021/11/03 04:14:06;;;;;;;9.70;6.82;;;;;;;12.56;70.72;100266.22;4955110;28;20051;-64
2021/11/03 04:16:33;;;;;;;9.57;6.75;;;;;;;12.58;70.71;100274.81;4955029;28;20047;-64
2021/11/03 04:19:00;;;;;;;9.32;7.35;;;;;;;12.56;70.86;100279.38;4955370;28;20051;-64
2021/11/03 04:21:27;;;;;;;10.25;7.00;;;;;;;12.57;70.57;100281.06;4954930;28;20047;-65
2021/11/03 04:24:13;;;;;;;9.18;6.10;;;;;;;12.58;70.97;100280.94;4954951;28;20139;-64
2021/11/03 04:26:43;;;;;;;8.23;5.55;;;;;;;12.58;70.94;100275.69;4955481;28;20106;-64
2021/11/03 04:29:10;;;;;;;6.60;5.22;;;;;;;12.57;71.15;100274.00;4955033;28;20114;-64
2021/11/03 04:31:38;;;;;;;6.90;5.75;;;;;;;12.56;71.51;100280.19;4955070;28;20060;-63
2021/11/03 04:34:04;;;;;;;6.63;4.55;;;;;;;12.56;71.62;100288.09;4954845;28;20445;-64
2021/11/03 04:36:32;;;;;;;6.85;4.57;;;;;;;12.58;71.53;100280.09;4954987;28;20040;-64
2021/11/03 04:39:02;;;;;;;5.95;4.45;;;;;;;12.58;71.74;100275.69;4955023;28;20043;-64
2021/11/03 04:41:28;;;;;;;6.13;4.55;;;;;;;12.60;71.78;100272.09;4954877;28;20126;-64
2021/11/03 04:43:55;;;;;;;5.97;5.07;;;;;;;12.59;71.88;100265.97;4954717;28;20047;-63
2021/11/03 04:46:22;;;;;;;5.60;4.10;;;;;;;12.59;72.23;100260.72;4916978;28;1118116;-64
2021/11/03 04:48:49;;;;;;;4.78;3.83;;;;;;;12.57;72.07;100252.94;4956704;28;20444;-63
2021/11/03 04:51:17;;;;;;;5.43;4.20;;;;;;;12.56;72.34;100243.34;4955934;28;20514;-63
2021/11/03 04:53:44;;;;;;;4.80;3.80;;;;;;;12.55;72.56;100246.94;4955674;28;20078;-64
2021/11/03 04:56:12;;;;;;;4.95;4.15;;;;;;;12.55;72.68;100244.31;4955315;28;20047;-64
2021/11/03 04:58:40;;;;;;;5.70;4.13;;;;;;;12.56;72.71;100232.81;4955802;28;20051;-63
2021/11/03 05:01:08;;;;;;;5.90;3.95;;;;;;;12.54;72.84;100221.59;4955095;28;20419;-64
2021/11/03 05:03:39;;;;;;;4.68;3.92;;;;;;;12.54;72.78;100218.97;4955562;28;20047;-64
2021/11/03 05:06:06;;;;;;;4.35;3.90;;;;;;;12.57;72.86;100215.25;4955677;28;20175;-64
2021/11/03 05:08:33;;;;;;;8.10;3.35;;;;;;;12.57;72.91;100212.63;4955534;28;20098;-64
2021/11/03 05:10:59;;;;;;;5.50;3.65;;;;;;;12.58;73.10;100219.53;4955485;28;20055;-64
2021/11/03 05:13:26;;;;;;;3.83;3.42;;;;;;;12.58;73.28;100220.41;4955335;28;20043;-64
2021/11/03 05:15:53;;;;;;;4.03;3.35;;;;;;;12.60;73.23;100220.28;4955326;28;20465;-63
2021/11/03 05:18:19;;;;;;;5.45;4.05;;;;;;;12.61;73.23;100211.44;4951824;28;20484;-64
2021/11/03 05:20:46;;;;;;;4.05;3.55;;;;;;;12.62;73.42;100213.13;4955382;28;20093;-64
2021/11/03 05:23:13;;;;;;;3.72;3.15;;;;;;;12.62;73.50;100210.50;4955356;28;20048;-64
2021/11/03 05:25:39;;;;;;;5.55;3.90;;;;;;;12.64;73.58;100215.63;4955219;28;20054;-64
2021/11/03 05:28:06;;;;;;;6.03;4.75;;;;;;;12.64;73.57;100223.53;4954866;28;20051;-64
2021/11/03 05:30:33;;;;;;;6.13;3.58;;;;;;;12.65;73.57;100228.69;4954923;28;20044;-64
2021/11/03 05:33:00;;;;;;;6.88;3.20;;;;;;;12.66;73.55;100234.78;4954448;28;20089;-64
2021/11/03 05:35:27;;;;;;;4.78;3.63;;;;;;;12.68;73.77;100235.50;4954641;28;20043;-64
2021/11/03 05:37:54;;;;;;;3.50;2.90;;;;;;;12.68;73.65;100240.78;4954664;28;20059;-63
2021/11/03 05:40:25;;;;;;;3.80;2.78;;;;;;;12.68;73.58;100238.97;4953618;28;20051;-64
2021/11/03 05:42:52;;;;;;;3.47;2.60;;;;;;;12.69;73.75;100251.19;4954846;28;20059;-64
2021/11/03 05:45:18;;;;;;;3.40;2.60;;;;;;;12.68;73.59;100238.16;4954538;28;20047;-64
2021/11/03 05:47:45;;;;;;;3.08;2.67;;;;;;;12.69;73.82;100239.81;4954413;28;20058;-64
2021/11/03 05:50:19;;;;;;;3.50;2.97;;;;;;;12.70;73.78;100246.78;4953525;28;20051;-64
2021/11/03 05:52:46;;;;;;;3.33;2.33;;;;;;;12.71;73.57;100245.84;4953218;28;20062;-64
2021/11/03 05:55:14;;;;;;;3.22;2.35;;;;;;;12.69;73.77;100224.03;4954541;28;20047;-64
2021/11/03 05:57:42;;;;;;;2.88;2.20;;;;;;;12.69;73.55;100224.84;4954750;28;20385;-64
2021/11/03 06:00:22;;;;;;;3.10;2.08;;;;;;;12.69;73.71;100227.50;4952719;28;20043;-63
2021/11/03 06:02:49;;;;;;;3.78;2.22;;;;;;;12.71;73.52;100233.50;4953716;28;20392;-64
2021/11/03 06:05:16;;;;;;;3.17;1.98;;;;;;;12.71;73.42;100228.22;4954158;28;20053;-63
2021/11/03 06:07:54;;;;;;;2.13;1.90;;;;;;;12.73;73.27;100228.97;4954551;28;20051;-63
2021/11/03 06:10:25;;;;;;;3.25;1.80;;;;;;;12.76;73.49;100237.56;4953685;28;20065;-64
2021/11/03 06:12:53;;;;;;;2.63;1.90;;;;;;;12.76;73.21;100235.81;4954350;28;20054;-63
2021/11/03 06:15:20;;;;;;;2.63;1.83;;;;;;;12.77;72.91;100249.78;4952535;28;20054;-65
2021/11/03 06:17:47;;;;;;;2.03;1.80;;;;;;;12.78;72.88;100248.84;4954067;28;20051;-62
2021/11/03 06:20:13;;;;;;;2.83;2.00;;;;;;;12.79;72.81;100248.72;4953986;28;20051;-65
2021/11/03 06:22:40;;;;;;;2.55;1.83;;;;;;;12.78;72.68;100252.31;4954184;28;20055;-65
2021/11/03 06:25:18;;;;;;;3.58;2.22;;;;;;;12.79;72.47;100237.38;4954075;28;20511;-64
2021/11/03 06:27:50;;;;;;;3.22;1.60;;;;;;;12.81;72.57;100243.34;4953790;28;20434;-62
2021/11/03 06:30:21;;;;;;;3.55;1.50;;;;;;;12.81;72.47;100235.44;4953916;28;20051;-63
2021/11/03 06:35:35;;;;;;;1.58;1.15;;;;;;;12.85;71.93;100236.88;4394829;23;21817;-63
2021/11/03 06:38:04;;;;;;;1.27;1.15;;;;;;;12.87;71.63;100246.38;4968152;28;20051;-63
2021/11/03 06:40:31;;;;;;;1.67;1.13;;;;;;;12.87;71.51;100249.00;4968790;28;20051;-64
2021/11/03 06:42:58;;;;;;;2.25;1.40;;;;;;;12.87;71.31;100261.31;4968784;28;20047;-64
2021/11/03 06:45:26;;;;;;;1.30;1.00;;;;;;;12.87;71.21;100264.81;4969450;28;20093;-63
2021/11/03 06:47:53;;;;;;;2.80;1.55;;;;;;;12.89;70.96;100269.97;4969142;28;20047;-62
2021/11/03 06:50:25;;;;;;;1.52;1.27;;;;;;;12.92;70.96;100266.25;4969054;28;20057;-65
2021/11/03 06:52:53;;;;;;;2.13;1.20;;;;;;;12.91;70.75;100260.13;4964297;28;20573;-63
2021/11/03 06:55:21;;;;;;;1.92;1.00;;;;;;;12.94;70.62;100261.69;4967720;28;20050;-60
2021/11/03 06:57:49;;;;;;;4.10;1.27;;;;;;;12.94;70.42;100249.38;4965976;28;20532;-64
2021/11/03 07:00:22;;;;;;;14.45;2.75;;;;;;;12.97;70.18;100264.94;4967734;28;20050;-64
2021/11/03 07:02:48;;;;;;;6.32;1.27;;;;;;;12.97;70.38;100261.47;4966022;28;20043;-64
2021/11/03 07:05:15;;;;;;;1.20;0.85;;;;;;;12.98;69.87;100260.53;4965990;28;20121;-63
2021/11/03 07:07:42;;;;;;;2.10;1.10;;;;;;;13.01;69.75;100260.28;4968320;28;20095;-61
2021/11/03 07:10:12;;;;;;;1.48;0.90;;;;;;;13.02;69.72;100254.06;4967823;28;20406;-63
2021/11/03 07:12:39;;;;;;;2.25;1.30;;;;;;;13.03;69.36;100253.94;4968784;28;20109;-60
2021/11/03 07:15:06;;;;;;;4.45;1.30;;;;;;;13.06;69.50;100242.34;4968603;28;20066;-60
2021/11/03 07:17:32;;;;;;;1.73;0.90;;;;;;;13.09;69.22;100252.66;4969334;28;20102;-63
2021/11/03 07:19:59;;;;;;;1.80;0.82;;;;;;;13.14;69.33;100245.25;4968049;28;20454;-62
2021/11/03 07:22:25;;;;;;;1.75;0.80;;;;;;;13.17;69.00;100252.91;4968142;28;20051;-60
2021/11/03 07:24:53;;;;;;;3.10;1.00;;;;;;;13.20;68.82;100247.44;4968463;28;20051;-64
2021/11/03 07:27:21;;;;;;;1.65;0.93;;;;;;;13.21;68.61;100246.44;4962973;28;20054;-60
2021/11/03 07:29:48;;;;;;;1.60;0.93;;;;;;;13.23;68.56;100251.63;4966865;28;20143;-61
2021/11/03 07:32:14;;;;;;;1.40;1.10;;;;;;;13.25;68.87;100248.88;4966117;28;20068;-61
2021/11/03 07:34:41;;;;;;;1.63;0.90;;;;;;;13.27;68.39;100247.78;4963003;28;20047;-60
2021/11/03 07:37:08;;;;;;;2.72;1.10;;;;;;;13.31;68.47;100245.78;4967483;28;20047;-63
2021/11/03 07:39:34;;;;;;;1.00;0.88;;;;;;;13.36;68.07;100243.63;4965459;28;20063;-60
2021/11/03 07:42:01;;;;;;;2.05;0.90;;;;;;;13.39;68.20;100249.53;4968237;28;20125;-62
2021/11/03 07:44:28;;;;;;;3.95;1.05;;;;;;;13.41;68.08;100249.41;4967749;28;20043;-64
2021/11/03 07:46:54;;;;;;;1.20;0.82;;;;;;;13.44;68.00;100240.44;4966248;28;20082;-62
2021/11/03 07:49:21;;;;;;;3.03;0.90;;;;;;;13.45;67.71;100242.13;4968014;28;20518;-62
2021/11/03 07:51:48;;;;;;;4.68;1.00;;;;;;;13.45;67.60;100242.94;4953673;28;20047;-63
2021/11/03 07:54:14;;;;;;;4.32;1.10;;;;;;;13.47;67.67;100241.03;4965044;28;20098;-62
2021/11/03 07:56:42;;;;;;;3.75;1.10;;;;;;;13.48;67.89;100239.22;4969038;28;20148;-61
2021/11/03 07:59:11;;;;;;;2.20;1.08;;;;;;;13.49;67.66;100252.28;4971629;28;20043;-61
2021/11/03 08:01:37;;;;;;;4.07;1.30;;;;;;;13.52;67.69;100243.31;4971787;28;20050;-61
2021/11/03 08:04:04;;;;;;;3.75;1.23;;;;;;;13.53;67.89;100247.63;4972157;28;20047;-61
2021/11/03 08:06:31;;;;;;;7.93;1.42;;;;;;;13.53;67.81;100235.28;4964037;28;20047;-60
2021/11/03 08:09:05;;;;;;;7.55;1.25;;;;;;;13.55;67.43;100229.91;4980409;28;20050;-60
2021/11/03 08:11:50;;;;;;;5.55;1.70;;;;;;;13.55;67.68;100222.00;4972623;28;20499;-64
2021/11/03 08:14:23;;;;;;;2.45;0.90;;;;;;;13.53;67.81;100235.28;4971899;28;20458;-64
2021/11/03 08:17:21;;;;;;;5.22;1.30;;;;;;;13.53;67.47;100224.75;4968214;28;20047;-61
2021/11/03 08:19:52;;;;;;;4.28;1.23;;;;;;;13.53;67.64;100230.03;4970348;28;20047;-62
2021/11/03 08:22:23;;;;;;;7.13;1.70;;;;;;;13.53;67.52;100230.03;4971655;28;20057;-61
2021/11/03 08:24:55;;;;;;;1.92;0.90;;;;;;;13.52;67.72;100227.47;4965521;28;20046;-62
2021/11/03 08:27:22;;;;;;;6.82;1.48;;;;;;;13.53;67.39;100224.75;4970489;28;20046;-61
2021/11/03 08:29:51;;;;;;;2.20;0.90;;;;;;;13.53;67.52;100234.44;4968000;28;20663;-63
2021/11/03 08:32:21;;;;;;;4.25;1.00;;;;;;;13.52;67.58;100224.84;4968494;28;20090;-64
2021/11/03 08:34:49;;;;;;;2.58;1.00;;;;;;;13.52;67.70;100212.53;4971398;28;20054;-64
2021/11/03 08:37:20;;;;;;;4.95;0.82;;;;;;;13.52;67.72;100211.66;4969735;28;20059;-61
2021/11/03 08:39:50;;;;;;;3.95;1.30;;;;;;;13.52;67.91;100206.41;4967141;28;20051;-59
2021/11/03 08:42:18;;;;;;;1.98;0.90;;;;;;;13.51;67.99;100218.75;4970103;28;20057;-60
2021/11/03 08:44:47;;;;;;;2.67;1.08;;;;;;;13.47;68.12;100204.13;4957518;28;20388;-61
2021/11/03 08:47:14;;;;;;;2.22;0.85;;;;;;;13.47;68.32;100203.28;4971239;28;20491;-60
2021/11/03 08:49:41;;;;;;;3.33;0.82;;;;;;;13.44;68.66;100193.00;4971238;28;20074;-61
2021/11/03 08:52:09;;;;;;;1.25;0.80;;;;;;;13.44;68.65;100203.53;4970774;28;20055;-60
2021/11/03 08:54:39;;;;;;;3.58;0.90;;;;;;;13.44;68.54;100199.09;4971165;28;20050;-62
2021/11/03 08:57:21;;;;;;;2.50;0.88;;;;;;;13.47;68.34;100190.97;4969639;28;20057;-61
2021/11/03 08:59:54;;;;;;;2.30;0.82;;;;;;;13.50;68.43;100193.34;4965453;28;20047;-64
2021/11/03 09:02:21;;;;;;;2.72;1.10;;;;;;;13.53;68.45;100193.13;4971149;28;20063;-60
2021/11/03 09:04:50;;;;;;;2.20;1.00;;;;;;;13.54;68.33;100189.50;4970789;28;20088;-60
2021/11/03 09:07:17;;;;;;;5.57;1.70;;;;;;;13.55;68.42;100193.81;4970465;28;20097;-62
2021/11/03 09:09:45;;;;;;;1.73;0.85;;;;;;;13.54;68.66;100184.22;4970046;28;20042;-62
2021/11/03 09:12:15;;;;;;;2.92;1.00;;;;;;;13.56;68.66;100178.84;4971549;28;20054;-62
2021/11/03 09:14:42;;;;;;;3.35;0.70;;;;;;;13.57;68.67;100177.06;4969867;28;20051;-63
2021/11/03 09:17:10;;;;;;;3.22;1.20;;;;;;;13.59;68.80;100175.16;4970858;28;20053;-62
2021/11/03 09:19:38;;;;;;;4.25;1.05;;;;;;;13.59;68.82;100167.22;4969878;28;20047;-60
2021/11/03 09:22:06;;;;;;;1.92;0.98;;;;;;;13.60;68.84;100161.84;4964920;28;20142;-63
2021/11/03 09:24:37;;;;;;;4.65;1.85;;;;;;;13.62;68.88;100167.81;4960988;28;20097;-64
2021/11/03 09:27:12;;;;;;;5.82;1.10;;;;;;;13.64;69.01;100175.63;4969434;28;20074;-64
2021/11/03 09:29:48;;;;;;;1.48;1.05;;;;;;;13.65;69.08;100174.63;4970916;28;20046;-65
2021/11/03 09:32:17;;;;;;;;;;;;;;;13.64;69.04;100172.97;4971226;28;20050;-64
2021/11/03 09:34:48;;;;;;;2.60;1.10;;;;;;;13.64;69.37;100172.97;4970294;28;19927;-65
2021/11/03 09:37:20;;;;;;;4.07;1.20;;;;;;;13.62;69.24;100175.72;4970124;28;20499;-60
2021/11/03 09:39:49;;;;;;;5.93;1.23;;;;;;;13.62;69.68;100172.25;4970557;28;20059;-62
2021/11/03 09:42:17;;;;;;;4.20;1.27;;;;;;;13.55;69.93;100172.72;4969443;28;20051;-60
2021/11/03 09:44:46;;;;;;;5.18;1.23;;;;;;;13.53;70.11;100160.63;4970309;28;20554;-61
2021/11/03 09:47:13;;;;;;;3.88;1.20;;;;;;;13.52;70.22;100164.22;4970541;28;20081;-64
2021/11/03 09:49:48;;;;;;;4.55;1.30;;;;;;;13.50;70.33;100148.53;4963551;28;20047;-61
2021/11/03 09:52:28;;;;;;;3.57;1.50;;;;;;;13.50;70.44;100155.63;4969404;28;20113;-64
2021/11/03 09:55:10;;;;;;;5.03;1.30;;;;;;;13.48;70.88;100157.53;4969440;28;20282;-60
2021/11/03 09:57:47;;;;;;;2.67;1.17;;;;;;;13.47;70.76;100164.59;4968744;28;20042;-64
2021/11/03 10:00:19;;;;;;;4.38;1.30;;;;;;;13.46;71.03;100170.81;4968451;28;20494;-60
2021/11/03 10:03:13;;;;;;;3.20;1.50;;;;;;;13.44;71.10;100169.28;4967506;28;20074;-60
2021/11/03 10:06:39;;;;;;;4.40;1.35;;;;;;;13.44;71.27;100162.19;4968862;28;20108;-60
2021/11/03 10:09:06;;;;;;;3.92;1.73;;;;;;;13.45;71.34;100160.41;4928121;29;20047;-64
2021/11/03 10:11:44;;;;;;;4.68;1.42;;;;;;;13.41;71.45;100158.94;4924999;29;20052;-62
2021/11/03 10:14:10;;;;;;;5.50;1.30;;;;;;;13.38;71.29;100150.34;4957383;28;20042;-63
2021/11/03 10:16:44;;;;;;;3.25;1.50;;;;;;;13.43;71.25;100138.59;4969705;28;20043;-61
2021/11/03 10:19:13;;;;;;;3.10;1.60;;;;;;;13.45;71.43;100128.78;4969530;28;20098;-61
2021/11/03 10:21:52;;;;;;;5.15;2.22;;;;;;;13.45;71.62;100123.50;4968854;28;20073;-65
2021/11/03 10:24:20;;;;;;;6.72;2.83;;;;;;;13.48;71.67;100120.63;4969790;28;20567;-60
2021/11/03 10:26:54;;;;;;;4.20;1.52;;;;;;;13.46;71.92;100112.84;4969396;28;20051;-61
2021/11/03 10:29:24;;;;;;;2.97;1.50;;;;;;;13.41;72.10;100111.50;4964576;28;20093;-62
2021/11/03 10:32:09;;;;;;;4.85;1.67;;;;;;;13.37;72.37;100103.03;4968038;28;20097;-61
2021/11/03 10:34:35;;;;;;;5.25;1.80;;;;;;;13.32;72.78;100106.00;4968593;28;20058;-63
2021/11/03 10:37:17;;;;;;;5.47;3.10;;;;;;;13.28;73.09;100115.09;4966922;28;20054;-65
2021/11/03 10:39:56;;;;;;;7.00;3.22;;;;;;;13.23;73.17;100112.00;4968116;28;20050;-61
2021/11/03 10:42:32;;;;;;;5.88;2.42;;;;;;;13.18;73.81;100106.22;4968715;28;20399;-64
2021/11/03 10:45:29;;;;;;;8.68;2.72;;;;;;;13.15;73.97;100096.75;4969007;28;20042;-63
2021/11/03 10:48:29;;;;;;;7.72;3.30;;;;;;;13.18;74.33;100091.25;4969247;28;20419;-64
2021/11/03 10:50:56;;;;;;;9.25;3.58;;;;;;;13.21;74.39;100098.09;4961705;28;20057;-61
2021/11/03 10:53:36;;;;;;;11.63;4.80;;;;;;;13.18;74.56;100099.16;4968745;28;20046;-60
2021/11/03 10:56:19;;;;;;;9.20;4.00;;;;;;;13.16;74.69;100105.50;4968442;28;20097;-64
2021/11/03 10:58:48;;;;;;;7.88;3.70;;;;;;;13.14;75.06;100105.63;4964098;28;20075;-61
2021/11/03 11:01:28;;;;;;;6.38;3.13;;;;;;;13.11;75.15;100095.31;4962283;28;20051;-60
2021/11/03 11:04:07;;;;;;;5.78;3.30;;;;;;;13.11;75.23;100083.97;4968808;28;20056;-60
2021/11/03 11:06:39;;;;;;;10.10;2.88;;;;;;;13.10;75.43;100066.47;4968780;28;20455;-62
2021/11/03 11:09:08;;;;;;;9.35;3.40;;;;;;;13.09;75.61;100056.88;4969130;28;20109;-63
2021/11/03 11:11:38;;;;;;;6.55;2.65;;;;;;;13.07;76.07;100055.19;4968277;28;20050;-63
2021/11/03 11:14:17;;;;;;;6.38;2.50;;;;;;;13.05;76.22;100038.69;4968839;28;20105;-62
2021/11/03 11:17:02;;;;;;;6.97;2.15;;;;;;;13.04;76.33;100034.38;4968019;28;20057;-62
2021/11/03 11:19:38;;;;;;;6.18;2.38;;;;;;;13.04;76.68;100037.03;4968032;28;20047;-66
2021/11/03 11:22:48;;;;;;;3.17;1.83;;;;;;;13.03;76.78;100035.34;4967754;28;20082;-63
2021/11/03 11:25:40;;;;;;;9.57;2.38;;;;;;;13.03;76.96;100016.91;4967817;28;20043;-65
2021/11/03 11:28:38;;;;;;;7.63;3.05;;;;;;;13.03;76.91;100030.06;4965770;28;20522;-65
2021/11/03 11:31:13;;;;;;;6.68;2.20;;;;;;;13.00;76.83;100022.44;4967944;28;20051;-64
2021/11/03 11:33:49;;;;;;;4.47;2.25;;;;;;;13.17;76.86;100018.44;4972695;28;20086;-63
2021/11/03 11:36:20;;;;;;;6.43;2.78;;;;;;;13.10;76.80;100008.53;4971047;28;20062;-65
2021/11/03 11:38:59;;;;;;;4.13;2.08;;;;;;;13.10;76.94;100008.53;4972344;28;20078;-63
2021/11/03 11:42:00;;;;;;;7.88;2.80;;;;;;;13.14;76.92;100002.03;4972527;28;20055;-66